Terminal Aerodrome Forecast
Issued by NWS

Home | Current Version | Previous Version | Graphics & Text | Print | Product List | Glossary On
Versions: 1 2 3 4 5 6 7 8 9 10 11 12 13 14 15 16 17 18 19 20 21 22 23 24 25 26 27 28 29 30 31 32 33 34 35 36 37 38 39 40
000
FTUS43 KGRB 262300
TAFRHI
TAF
KRHI 262337Z 2700/2724 03004KT P6SM SCT009 OVC016
      TEMPO 2700/2704 BKN009
     FM270700 01005KT 2SM -SN BR OVC008
     FM271000 02004KT 1SM BR OVC005
     FM271200 03003KT 3/4SM BR OVC004
     FM271700 34005KT 3SM -SN BR BKN008 OVC018
     FM272000 29009KT 5SM -SN BKN018
     FM272200 29008KT P6SM SCT020 BKN040=

USA.gov is the U.S. government's official web portal to all federal, state and local government web resources and services.